Time;durP1;ratioP1;P1;durP2;ratioP2;P2;SDS_P1;SDS_P2;PMS_P1;PMS_P2;Temp;Humidity;BMP_temperature;BMP_pressure;BME280_temperature;BME280_humidity;BME280_pressure;Samples;Min_cycle;Max_cycle;Signal;HPM_P1;HPM_P2
2020/12/29 00:00:29;;;;;;;23.87;16.97;;;3.00;99.90;;;;;;5027773;28;20212;-60
2020/12/29 00:02:55;;;;;;;22.33;16.27;;;3.00;99.90;;;;;;5018405;28;20277;-61
2020/12/29 00:05:20;;;;;;;24.33;16.47;;;3.00;99.90;;;;;;5026348;28;20194;-61
2020/12/29 00:07:55;;;;;;;25.50;17.63;;;3.00;99.90;;;;;;5029711;28;20322;-58
2020/12/29 00:10:24;;;;;;;25.83;18.60;;;3.10;99.90;;;;;;5025144;28;20794;-60
2020/12/29 00:12:50;;;;;;;27.23;17.27;;;3.00;99.90;;;;;;5020681;28;20205;-61
2020/12/29 00:15:16;;;;;;;25.23;17.60;;;3.00;99.90;;;;;;5016292;28;20201;-61
2020/12/29 00:17:42;;;;;;;23.97;16.63;;;3.10;99.90;;;;;;5015800;28;20187;-61
2020/12/29 00:20:09;;;;;;;26.77;17.00;;;3.10;99.90;;;;;;5021690;28;20539;-59
2020/12/29 00:22:36;;;;;;;23.92;17.45;;;3.10;99.90;;;;;;5026859;28;20429;-60
2020/12/29 00:25:03;;;;;;;25.85;16.80;;;3.10;99.90;;;;;;5026595;28;20263;-60
2020/12/29 00:27:29;;;;;;;25.17;17.58;;;3.10;99.90;;;;;;5009762;28;20187;-61
2020/12/29 00:29:54;;;;;;;24.17;17.40;;;3.10;99.90;;;;;;5023135;28;20189;-61
2020/12/29 00:32:20;;;;;;;24.60;17.90;;;3.00;99.90;;;;;;5024951;28;20541;-61
2020/12/29 00:34:47;;;;;;;24.10;17.10;;;3.10;99.90;;;;;;5018685;28;20187;-60
2020/12/29 00:37:13;;;;;;;21.95;15.98;;;3.10;99.90;;;;;;5029322;28;20182;-60
2020/12/29 00:39:39;;;;;;;24.20;16.80;;;3.10;99.90;;;;;;5020783;28;20313;-60
2020/12/29 00:42:05;;;;;;;25.40;16.53;;;3.00;99.90;;;;;;5020618;28;20720;-59
2020/12/29 00:44:30;;;;;;;22.53;16.73;;;3.00;99.90;;;;;;5023823;28;20221;-60
2020/12/29 00:46:56;;;;;;;23.90;16.10;;;3.10;99.90;;;;;;5029242;28;20483;-59
2020/12/29 00:49:22;;;;;;;20.00;15.10;;;3.10;99.90;;;;;;5022650;28;20201;-60
2020/12/29 00:51:47;;;;;;;23.00;16.33;;;3.10;99.90;;;;;;5016924;28;20632;-60
2020/12/29 00:54:13;;;;;;;21.50;16.30;;;3.10;99.90;;;;;;5026978;28;20247;-59
2020/12/29 00:56:38;;;;;;;22.23;16.43;;;3.00;99.90;;;;;;5029030;28;20214;-59
2020/12/29 00:59:04;;;;;;;21.80;15.70;;;3.00;99.90;;;;;;5023327;28;20232;-59
2020/12/29 01:01:30;;;;;;;22.20;15.57;;;2.90;99.90;;;;;;5027316;28;20740;-59
2020/12/29 01:03:56;;;;;;;25.60;17.73;;;3.00;99.90;;;;;;5028197;28;20265;-59
2020/12/29 01:06:29;;;;;;;20.50;15.67;;;2.90;99.90;;;;;;5029143;28;20280;-59
2020/12/29 01:08:54;;;;;;;21.00;15.95;;;2.90;98.30;;;;;;5023491;28;20325;-59
2020/12/29 01:11:23;;;;;;;23.27;16.83;;;2.90;99.90;;;;;;5017094;28;20229;-59
2020/12/29 01:13:49;;;;;;;22.85;16.08;;;2.90;99.90;;;;;;5024271;28;20435;-60
2020/12/29 01:16:14;;;;;;;23.30;16.10;;;3.00;99.90;;;;;;5028162;28;20182;-59
2020/12/29 01:18:40;;;;;;;20.57;15.07;;;3.00;98.60;;;;;;5028344;28;20194;-60
2020/12/29 01:21:09;;;;;;;27.43;16.60;;;3.00;99.70;;;;;;5014374;28;20673;-60
2020/12/29 01:23:35;;;;;;;23.77;17.10;;;2.90;98.50;;;;;;5024204;28;20198;-60
2020/12/29 01:26:01;;;;;;;21.92;15.77;;;2.90;99.90;;;;;;5028001;28;20196;-60
2020/12/29 01:28:27;;;;;;;21.23;15.33;;;2.90;99.90;;;;;;5017608;28;20213;-60
2020/12/29 01:30:52;;;;;;;21.47;14.97;;;2.90;97.20;;;;;;5027171;28;20201;-60
2020/12/29 01:33:18;;;;;;;20.33;15.70;;;2.90;98.00;;;;;;5029128;28;20240;-59
2020/12/29 01:35:44;;;;;;;20.37;14.37;;;2.90;99.90;;;;;;5020314;28;20279;-59
2020/12/29 01:38:09;;;;;;;22.53;16.77;;;2.90;99.90;;;;;;5025049;28;20194;-62
2020/12/29 01:40:35;;;;;;;20.80;15.13;;;2.80;99.40;;;;;;5020766;28;20558;-60
2020/12/29 01:43:02;;;;;;;19.50;15.60;;;2.80;97.80;;;;;;5014634;28;20198;-60
2020/12/29 01:45:28;;;;;;;19.88;14.98;;;2.80;96.80;;;;;;5013969;28;20929;-61
2020/12/29 01:47:54;;;;;;;21.13;15.67;;;2.70;96.70;;;;;;5018621;28;20194;-60
2020/12/29 01:50:25;;;;;;;22.95;15.00;;;2.70;95.70;;;;;;5031869;28;20193;-58
2020/12/29 01:53:01;;;;;;;19.65;15.75;;;2.60;95.00;;;;;;5026233;28;20212;-60
2020/12/29 01:55:28;;;;;;;21.58;15.43;;;2.60;94.20;;;;;;5024271;28;20660;-60
2020/12/29 01:57:58;;;;;;;19.90;14.40;;;2.50;95.10;;;;;;5031049;28;20219;-60
2020/12/29 02:00:24;;;;;;;21.40;14.63;;;2.50;93.80;;;;;;5031177;28;20228;-60
2020/12/29 02:02:50;;;;;;;21.58;14.55;;;2.40;92.80;;;;;;5030969;28;20190;-60
2020/12/29 02:05:16;;;;;;;22.20;15.07;;;2.40;93.20;;;;;;5023592;28;20193;-60
2020/12/29 02:07:42;;;;;;;22.70;15.57;;;2.40;91.80;;;;;;5030653;28;20234;-59
2020/12/29 02:10:08;;;;;;;24.63;16.00;;;2.40;92.00;;;;;;5031586;28;20475;-60
2020/12/29 02:12:36;;;;;;;21.57;15.70;;;2.40;94.10;;;;;;5020001;28;20229;-60
2020/12/29 02:15:05;;;;;;;25.02;15.68;;;2.30;94.80;;;;;;5017416;28;20328;-60
2020/12/29 02:17:31;;;;;;;23.23;15.65;;;2.30;92.60;;;;;;5015810;28;20193;-60
2020/12/29 02:19:56;;;;;;;21.67;15.27;;;2.20;92.80;;;;;;5027903;28;20748;-60
2020/12/29 02:22:24;;;;;;;24.17;16.50;;;2.20;94.10;;;;;;5030801;28;20424;-60
2020/12/29 02:24:54;;;;;;;24.63;16.85;;;2.20;95.10;;;;;;5014715;28;20235;-60
2020/12/29 02:27:22;;;;;;;24.83;17.48;;;2.20;94.80;;;;;;5029671;28;20332;-61
2020/12/29 02:29:47;;;;;;;28.48;16.63;;;2.20;95.30;;;;;;5023430;28;20204;-61
2020/12/29 02:32:14;;;;;;;25.83;16.97;;;2.20;94.30;;;;;;5029832;28;20200;-61
2020/12/29 02:34:41;;;;;;;23.55;16.38;;;2.20;95.90;;;;;;5016532;28;20445;-61
2020/12/29 02:37:09;;;;;;;25.13;17.42;;;2.20;95.00;;;;;;5030038;28;20236;-61
2020/12/29 02:39:40;;;;;;;24.08;17.30;;;2.10;94.70;;;;;;5028845;28;20311;-61
2020/12/29 02:42:07;;;;;;;26.15;18.63;;;2.10;94.50;;;;;;5029808;28;20277;-59
2020/12/29 02:44:33;;;;;;;26.88;17.45;;;2.10;93.50;;;;;;5022190;28;20193;-61
2020/12/29 02:46:59;;;;;;;27.65;17.85;;;2.00;93.40;;;;;;5018293;28;20207;-60
2020/12/29 02:49:25;;;;;;;24.57;16.33;;;2.00;95.20;;;;;;5021607;28;20285;-61
2020/12/29 02:51:50;;;;;;;23.80;15.30;;;2.00;95.60;;;;;;5028581;28;20204;-61
2020/12/29 02:54:16;;;;;;;25.37;16.67;;;2.00;97.30;;;;;;5025831;28;20264;-61
2020/12/29 02:56:43;;;;;;;23.08;16.30;;;2.10;97.60;;;;;;5016738;28;20185;-61
2020/12/29 02:59:09;;;;;;;24.67;17.20;;;2.10;96.00;;;;;;5022179;28;20193;-61
2020/12/29 03:01:35;;;;;;;26.75;16.00;;;2.10;95.00;;;;;;5018148;28;20205;-61
2020/12/29 03:04:01;;;;;;;27.40;17.20;;;2.10;95.60;;;;;;5028487;28;20236;-61
2020/12/29 03:06:27;;;;;;;24.37;16.57;;;2.10;96.20;;;;;;5029540;28;20283;-61
2020/12/29 03:08:53;;;;;;;26.70;16.07;;;2.10;92.20;;;;;;5010942;28;20417;-61
2020/12/29 03:11:29;;;;;;;25.58;16.75;;;2.10;89.10;;;;;;5014306;28;20201;-57
2020/12/29 03:13:57;;;;;;;23.90;16.27;;;2.00;89.80;;;;;;5011230;28;20192;-60
2020/12/29 03:16:23;;;;;;;24.73;16.20;;;2.00;92.30;;;;;;5021266;28;20189;-61
2020/12/29 03:18:49;;;;;;;23.45;15.80;;;2.00;90.80;;;;;;5028615;28;20643;-61
2020/12/29 03:21:15;;;;;;;28.03;17.50;;;2.00;92.10;;;;;;5030282;28;20267;-60
2020/12/29 03:23:41;;;;;;;21.67;15.33;;;1.90;92.50;;;;;;5040899;28;20443;-60
2020/12/29 03:26:06;;;;;;;29.27;16.80;;;1.90;92.60;;;;;;5034168;28;20436;-61
2020/12/29 03:28:32;;;;;;;25.80;16.50;;;1.80;93.50;;;;;;5022130;28;20492;-61
2020/12/29 03:30:58;;;;;;;23.43;16.00;;;1.80;94.00;;;;;;5023374;28;20658;-61
2020/12/29 03:33:23;;;;;;;28.07;16.60;;;1.80;94.70;;;;;;5018893;28;20462;-61
2020/12/29 03:35:49;;;;;;;22.13;15.57;;;1.80;94.30;;;;;;5024373;28;20267;-61
2020/12/29 03:38:15;;;;;;;23.60;15.90;;;1.80;93.40;;;;;;5027273;28;20900;-61
2020/12/29 03:40:41;;;;;;;24.20;15.67;;;1.80;93.20;;;;;;5023226;28;21221;-61
2020/12/29 03:43:12;;;;;;;24.60;16.37;;;1.80;93.20;;;;;;5018381;28;20259;-61
2020/12/29 03:45:41;;;;;;;23.05;15.63;;;1.70;94.10;;;;;;5010313;28;20274;-61
2020/12/29 03:48:09;;;;;;;23.38;15.52;;;1.70;96.40;;;;;;5015079;28;20186;-61
2020/12/29 03:50:34;;;;;;;26.88;17.00;;;1.70;96.90;;;;;;5022804;28;20213;-61
2020/12/29 03:53:00;;;;;;;25.57;16.37;;;1.60;95.90;;;;;;5015111;28;20215;-61
2020/12/29 03:55:26;;;;;;;25.33;16.60;;;1.60;96.30;;;;;;5029847;28;20636;-60
2020/12/29 03:57:51;;;;;;;26.00;15.80;;;1.50;95.50;;;;;;5026332;28;20316;-60
2020/12/29 04:00:17;;;;;;;26.60;15.77;;;1.50;96.40;;;;;;5010509;28;20216;-60
2020/12/29 04:02:42;;;;;;;26.13;16.67;;;1.50;98.00;;;;;;5011991;28;20223;-61
2020/12/29 04:05:09;;;;;;;26.67;16.13;;;1.50;97.10;;;;;;5015343;28;20180;-61
2020/12/29 04:07:34;;;;;;;25.42;15.80;;;1.50;95.50;;;;;;5020333;28;20233;-61
2020/12/29 04:10:00;;;;;;;24.87;14.97;;;1.50;93.40;;;;;;5027692;28;20213;-61
2020/12/29 04:12:25;;;;;;;23.60;14.67;;;1.50;92.60;;;;;;5017172;28;20192;-61
2020/12/29 04:14:51;;;;;;;20.73;13.87;;;1.40;92.20;;;;;;5018243;28;20192;-61
2020/12/29 04:17:17;;;;;;;23.37;14.67;;;1.40;90.60;;;;;;5020890;28;20793;-61
2020/12/29 04:19:42;;;;;;;27.03;16.10;;;1.40;88.40;;;;;;5012444;28;20191;-60
2020/12/29 04:22:08;;;;;;;23.97;15.00;;;1.40;87.50;;;;;;5024065;28;20183;-61
2020/12/29 04:24:33;;;;;;;23.43;15.23;;;1.40;87.40;;;;;;5019894;28;20199;-61
2020/12/29 04:26:59;;;;;;;23.90;14.10;;;1.40;86.00;;;;;;5024564;28;20306;-61
2020/12/29 04:29:25;;;;;;;29.13;16.90;;;1.40;88.70;;;;;;5028391;28;20183;-60
2020/12/29 04:31:51;;;;;;;25.23;16.20;;;1.40;89.30;;;;;;5026502;28;20432;-61
2020/12/29 04:34:16;;;;;;;28.30;16.30;;;1.40;89.70;;;;;;5020452;28;20191;-61
2020/12/29 04:36:42;;;;;;;23.07;15.63;;;1.40;89.20;;;;;;5029081;28;20237;-61
2020/12/29 04:39:08;;;;;;;26.98;15.93;;;1.40;88.60;;;;;;5012392;28;20186;-61
2020/12/29 04:41:34;;;;;;;28.97;17.60;;;1.40;85.60;;;;;;5026638;28;20227;-60
2020/12/29 04:43:59;;;;;;;23.43;15.27;;;1.40;86.00;;;;;;5012913;28;20197;-59
2020/12/29 04:46:26;;;;;;;23.70;15.67;;;1.40;82.50;;;;;;5025624;28;20208;-61
2020/12/29 04:48:52;;;;;;;26.95;15.75;;;1.40;81.30;;;;;;5008365;28;20656;-61
2020/12/29 04:51:17;;;;;;;24.37;16.80;;;1.40;80.10;;;;;;5008215;28;20174;-60
2020/12/29 04:53:56;;;;;;;23.13;15.37;;;1.30;81.50;;;;;;5009542;28;20481;-61
2020/12/29 04:56:31;;;;;;;25.58;15.82;;;1.30;80.40;;;;;;5008777;28;20417;-60
2020/12/29 04:59:02;;;;;;;20.95;14.45;;;1.30;82.70;;;;;;5008259;28;20177;-61
2020/12/29 05:01:31;;;;;;;23.55;14.30;;;1.30;85.20;;;;;;5009735;28;20231;-61
2020/12/29 05:03:57;;;;;;;20.10;14.23;;;1.20;86.30;;;;;;5025208;28;20754;-61
2020/12/29 05:06:23;;;;;;;24.30;15.03;;;1.20;84.80;;;;;;5017583;28;20221;-61
2020/12/29 05:08:50;;;;;;;22.70;14.97;;;1.20;85.30;;;;;;5009389;28;20412;-61
2020/12/29 05:11:17;;;;;;;28.08;17.08;;;1.20;81.00;;;;;;5021380;28;20442;-61
2020/12/29 05:13:47;;;;;;;26.98;15.73;;;1.10;77.40;;;;;;5028055;28;20191;-60
2020/12/29 05:16:13;;;;;;;27.08;16.35;;;1.00;80.30;;;;;;5020545;28;20296;-61
2020/12/29 05:18:39;;;;;;;28.42;16.92;;;1.00;86.10;;;;;;5038402;28;20674;-61
2020/12/29 05:21:06;;;;;;;24.55;16.58;;;1.00;90.40;;;;;;5021033;28;20247;-61
2020/12/29 05:23:31;;;;;;;25.70;16.70;;;0.90;93.50;;;;;;5036237;28;20650;-61
2020/12/29 05:25:57;;;;;;;27.43;18.00;;;0.80;96.30;;;;;;5032160;28;20208;-61
2020/12/29 05:28:25;;;;;;;30.57;17.27;;;0.90;97.60;;;;;;5032152;28;20216;-61
2020/12/29 05:30:55;;;;;;;27.52;16.33;;;0.90;98.60;;;;;;5022427;28;20442;-62
2020/12/29 05:33:20;;;;;;;28.92;17.80;;;0.80;98.80;;;;;;5030613;28;20184;-61
2020/12/29 05:35:46;;;;;;;27.27;16.50;;;0.80;98.10;;;;;;5027430;28;20772;-61
2020/12/29 05:38:12;;;;;;;24.17;16.37;;;0.70;99.40;;;;;;5029160;28;20186;-62
2020/12/29 05:40:38;;;;;;;25.23;16.80;;;0.70;99.90;;;;;;5031025;28;20239;-61
2020/12/29 05:43:04;;;;;;;25.60;17.20;;;0.70;99.90;;;;;;5032499;28;20484;-62
2020/12/29 05:45:32;;;;;;;32.25;18.80;;;0.70;99.90;;;;;;5030198;28;20271;-61
2020/12/29 05:47:59;;;;;;;26.05;16.65;;;0.70;99.90;;;;;;5028412;28;20968;-61
2020/12/29 05:50:27;;;;;;;27.35;16.90;;;0.60;99.90;;;;;;5030041;28;20187;-60
2020/12/29 05:52:54;;;;;;;32.10;17.90;;;0.60;99.90;;;;;;5032451;28;20248;-60
2020/12/29 05:55:21;;;;;;;27.77;15.13;;;0.60;99.90;;;;;;5018092;28;20195;-60
2020/12/29 05:58:05;;;;;;;25.30;16.00;;;0.70;99.90;;;;;;5031952;28;20201;-60
2020/12/29 06:00:32;;;;;;;22.30;14.82;;;0.70;99.90;;;;;;5022830;28;21075;-60
2020/12/29 06:02:59;;;;;;;21.60;14.55;;;0.70;99.90;;;;;;5018264;28;20170;-60
2020/12/29 06:05:27;;;;;;;21.25;11.85;;;0.70;99.90;;;;;;5019637;28;20206;-60
2020/12/29 06:07:57;;;;;;;21.30;13.15;;;0.70;99.90;;;;;;5021909;28;21581;-60
2020/12/29 06:10:25;;;;;;;18.85;13.00;;;0.80;99.90;;;;;;5018037;28;20216;-60
2020/12/29 06:12:56;;;;;;;18.13;12.95;;;0.80;99.90;;;;;;5030319;28;20217;-60
2020/12/29 06:15:33;;;;;;;24.40;12.80;;;0.90;99.90;;;;;;5029678;28;20677;-61
2020/12/29 06:18:00;;;;;;;16.35;11.50;;;0.90;99.90;;;;;;5030499;28;20194;-60
2020/12/29 06:20:32;;;;;;;14.88;10.25;;;1.00;99.90;;;;;;5014048;28;20299;-61
2020/12/29 06:23:04;;;;;;;16.50;11.07;;;1.00;99.90;;;;;;5022873;28;20943;-61
2020/12/29 06:25:37;;;;;;;19.90;12.43;;;1.10;99.90;;;;;;5030919;28;20215;-60
2020/12/29 06:28:06;;;;;;;17.92;11.20;;;1.20;95.00;;;;;;5024308;28;20235;-60
2020/12/29 06:30:35;;;;;;;14.60;10.73;;;1.20;91.30;;;;;;5029218;28;20271;-61
2020/12/29 06:33:01;;;;;;;17.23;10.85;;;1.30;90.50;;;;;;5031043;28;20196;-61
2020/12/29 06:35:27;;;;;;;16.38;10.63;;;1.30;89.60;;;;;;5022864;28;20592;-60
2020/12/29 06:38:09;;;;;;;16.73;11.80;;;1.40;84.50;;;;;;5022634;28;20266;-61
2020/12/29 06:40:36;;;;;;;21.73;12.57;;;1.40;81.50;;;;;;5020307;28;20285;-61
2020/12/29 06:43:07;;;;;;;18.17;11.65;;;1.50;78.20;;;;;;5025647;28;20189;-60
2020/12/29 06:45:34;;;;;;;17.63;11.43;;;1.50;77.10;;;;;;5030628;28;20196;-60
2020/12/29 06:48:01;;;;;;;18.60;11.73;;;1.50;77.50;;;;;;5019048;28;20182;-60
2020/12/29 06:50:33;;;;;;;17.42;11.77;;;1.60;75.50;;;;;;5017051;28;20295;-60
2020/12/29 06:53:00;;;;;;;15.38;11.45;;;1.60;71.60;;;;;;5026011;28;20184;-60
2020/12/29 06:55:36;;;;;;;18.05;10.82;;;1.60;64.60;;;;;;5022201;28;20194;-61
2020/12/29 06:58:02;;;;;;;19.42;11.90;;;1.60;64.20;;;;;;5022811;28;20258;-60
2020/12/29 07:00:27;;;;;;;14.15;10.43;;;1.60;61.70;;;;;;5017769;28;20206;-60
2020/12/29 07:02:54;;;;;;;15.33;10.57;;;1.60;61.20;;;;;;5028679;28;20185;-60
2020/12/29 07:05:25;;;;;;;17.33;11.05;;;1.60;62.00;;;;;;5029912;28;20189;-60
2020/12/29 07:07:58;;;;;;;13.63;10.13;;;1.60;62.70;;;;;;5017603;28;20190;-60
2020/12/29 07:10:46;;;;;;;16.13;11.77;;;1.60;62.60;;;;;;5025294;28;20207;-60
2020/12/29 07:13:17;;;;;;;17.02;10.85;;;1.60;64.80;;;;;;5024973;28;20268;-60
2020/12/29 07:15:49;;;;;;;15.50;11.02;;;1.70;67.60;;;;;;5016411;28;20721;-61
2020/12/29 07:18:26;;;;;;;15.82;9.32;;;1.80;71.00;;;;;;5017307;28;20517;-60
2020/12/29 07:20:54;;;;;;;16.05;9.52;;;2.00;57.90;;;;;;5003228;28;20210;-61
2020/12/29 07:23:27;;;;;;;14.82;10.85;;;2.00;49.10;;;;;;5001848;28;20193;-60
2020/12/29 07:25:56;;;;;;;13.05;8.95;;;2.10;49.30;;;;;;5004608;28;20217;-60
2020/12/29 07:28:28;;;;;;;14.27;9.57;;;2.10;46.20;;;;;;5003414;28;20285;-57
2020/12/29 07:30:53;;;;;;;13.45;9.80;;;2.10;44.00;;;;;;5002440;28;20701;-60
2020/12/29 07:33:22;;;;;;;13.90;10.03;;;2.20;42.90;;;;;;5004933;28;20300;-57
2020/12/29 07:35:48;;;;;;;15.90;10.32;;;2.20;39.10;;;;;;5003290;28;20232;-60
2020/12/29 07:38:20;;;;;;;12.73;9.15;;;2.20;33.60;;;;;;5015436;28;20209;-60
2020/12/29 07:40:46;;;;;;;15.05;10.63;;;2.30;32.40;;;;;;5002080;28;20233;-60
2020/12/29 07:43:11;;;;;;;15.33;10.27;;;2.30;32.60;;;;;;5002608;28;20206;-61
2020/12/29 07:45:37;;;;;;;14.07;10.10;;;2.30;31.70;;;;;;5001079;28;20190;-61
2020/12/29 07:48:05;;;;;;;13.90;10.73;;;2.30;32.60;;;;;;5001830;28;20559;-60
2020/12/29 07:50:32;;;;;;;14.75;10.52;;;2.30;33.30;;;;;;5002055;28;20472;-61
2020/12/29 07:53:07;;;;;;;17.40;11.75;;;2.30;34.40;;;;;;5016570;28;20636;-60
2020/12/29 07:55:34;;;;;;;19.90;12.23;;;2.30;38.10;;;;;;5016434;28;20184;-60
2020/12/29 07:58:02;;;;;;;20.35;10.77;;;2.30;41.40;;;;;;5015245;28;20219;-59
2020/12/29 08:00:27;;;;;;;17.90;11.25;;;2.30;43.20;;;;;;5020615;28;20207;-60
2020/12/29 08:02:53;;;;;;;17.87;11.57;;;2.40;39.20;;;;;;5028036;28;20187;-61
2020/12/29 08:05:20;;;;;;;15.68;10.30;;;2.40;42.70;;;;;;5015276;28;20186;-61
2020/12/29 08:07:56;;;;;;;13.43;9.18;;;2.50;38.80;;;;;;5025194;28;20182;-61
2020/12/29 08:10:24;;;;;;;14.35;9.88;;;2.60;32.50;;;;;;5023408;28;20217;-61
2020/12/29 08:12:51;;;;;;;18.73;10.25;;;2.70;35.30;;;;;;5021508;28;20272;-61
2020/12/29 08:15:30;;;;;;;13.85;10.25;;;2.70;29.60;;;;;;5012448;28;20202;-61
2020/12/29 08:18:01;;;;;;;13.43;9.90;;;2.80;29.20;;;;;;5022649;28;20194;-61
2020/12/29 08:20:27;;;;;;;12.52;9.88;;;2.90;26.90;;;;;;5015761;28;20292;-61
2020/12/29 08:22:53;;;;;;;16.30;9.90;;;2.90;23.10;;;;;;5023326;28;20529;-60
2020/12/29 08:25:19;;;;;;;14.80;9.95;;;3.00;22.10;;;;;;5024582;28;20559;-61
2020/12/29 08:27:45;;;;;;;13.05;9.50;;;3.10;13.80;;;;;;5022657;28;20269;-60
2020/12/29 08:30:11;;;;;;;11.85;9.73;;;3.10;11.90;;;;;;5012675;28;20195;-59
2020/12/29 08:32:39;;;;;;;13.02;9.30;;;3.30;12.40;;;;;;5025599;28;20199;-60
2020/12/29 08:35:11;;;;;;;14.00;10.43;;;3.30;10.20;;;;;;5059607;28;20198;-61
2020/12/29 08:37:51;;;;;;;12.38;9.82;;;3.50;11.70;;;;;;5010387;28;20195;-59
2020/12/29 08:40:22;;;;;;;12.25;9.77;;;3.60;1.00;;;;;;5027686;28;20333;-61
2020/12/29 08:42:49;;;;;;;12.98;9.20;;;3.70;1.00;;;;;;5026435;28;20626;-60
2020/12/29 08:45:16;;;;;;;12.98;9.80;;;3.80;1.00;;;;;;5024646;28;20194;-60
2020/12/29 08:47:45;;;;;;;12.05;9.35;;;3.90;1.00;;;;;;5024403;28;20513;-60
2020/12/29 08:50:34;;;;;;;11.82;9.20;;;4.00;1.00;;;;;;5026650;28;20186;-60
2020/12/29 08:53:07;;;;;;;11.15;8.23;;;4.20;1.00;;;;;;5029034;28;20186;-60
2020/12/29 08:55:35;;;;;;;11.02;9.05;;;4.30;1.00;;;;;;5012678;28;20189;-61
2020/12/29 08:58:02;;;;;;;11.13;8.55;;;4.50;1.00;;;;;;5029778;28;20933;-60
2020/12/29 09:00:29;;;;;;;10.15;7.95;;;4.60;1.00;;;;;;5022578;28;20238;-60
2020/12/29 09:02:55;;;;;;;11.82;8.63;;;4.80;1.00;;;;;;5033478;28;20216;-60
2020/12/29 09:05:28;;;;;;;11.82;9.02;;;5.10;1.00;;;;;;5031834;28;20189;-60
2020/12/29 09:07:55;;;;;;;9.77;8.57;;;5.50;1.00;;;;;;5033018;28;20179;-60
2020/12/29 09:10:22;;;;;;;10.45;9.20;;;6.10;1.00;;;;;;5033919;28;20197;-61
2020/12/29 09:12:48;;;;;;;11.10;9.50;;;6.60;1.00;;;;;;5025333;28;20184;-61
2020/12/29 09:15:25;;;;;;;11.30;8.90;;;7.10;1.00;;;;;;5022969;28;20233;-61
2020/12/29 09:17:58;;;;;;;8.80;7.90;;;7.50;99.90;;;;;;5025574;28;20428;-61
2020/12/29 09:20:30;;;;;;;9.30;8.00;;;8.20;26.70;;;;;;5028594;28;20502;-60
2020/12/29 09:23:12;;;;;;;9.20;8.30;;;8.90;1.00;;;;;;5017756;28;20970;-60
2020/12/29 09:25:42;;;;;;;8.87;7.33;;;9.40;99.90;;;;;;5025922;28;20953;-60
2020/12/29 09:28:08;;;;;;;10.73;8.80;;;9.80;1.00;;;;;;5027043;28;21225;-61
2020/12/29 09:30:34;;;;;;;8.50;7.70;;;10.30;1.00;;;;;;5015905;28;20969;-61
2020/12/29 09:33:00;;;;;;;9.33;8.47;;;10.60;18.90;;;;;;5004697;28;20426;-59
2020/12/29 09:35:26;;;;;;;7.57;6.87;;;10.90;1.00;;;;;;5014253;28;20786;-61
2020/12/29 09:37:57;;;;;;;8.60;7.80;;;11.10;1.00;;;;;;5006928;28;20188;-61
2020/12/29 09:40:23;;;;;;;7.50;6.80;;;11.20;1.00;;;;;;5006627;28;20504;-62
2020/12/29 09:42:49;;;;;;;8.10;7.30;;;11.20;1.00;;;;;;5013876;28;20453;-61
2020/12/29 09:45:23;;;;;;;10.33;9.23;;;11.40;1.00;;;;;;5005566;28;20449;-58
2020/12/29 09:47:49;;;;;;;7.97;7.27;;;11.60;1.00;;;;;;5013653;28;20438;-61
2020/12/29 09:50:14;;;;;;;7.50;6.53;;;11.90;1.00;;;;;;5005776;28;20448;-61
2020/12/29 09:52:40;;;;;;;6.97;6.37;;;12.50;1.00;;;;;;5005847;28;20445;-62
2020/12/29 09:55:06;;;;;;;6.00;5.40;;;13.00;1.00;;;;;;5015612;28;20190;-61
2020/12/29 09:57:32;;;;;;;5.80;5.30;;;13.40;99.90;;;;;;5008700;28;20278;-61
2020/12/29 09:59:58;;;;;;;5.60;5.20;;;13.70;99.90;;;;;;5003694;28;20234;-61
2020/12/29 10:02:24;;;;;;;5.90;5.40;;;13.60;99.90;;;;;;5007982;28;20587;-61
2020/12/29 10:04:50;;;;;;;5.90;5.40;;;13.40;99.90;;;;;;5004820;28;20175;-61
2020/12/29 10:07:16;;;;;;;5.10;4.80;;;13.90;99.90;;;;;;5006379;28;20187;-62
2020/12/29 10:09:41;;;;;;;5.00;4.60;;;14.00;99.90;;;;;;5003057;28;20503;-62
2020/12/29 10:12:07;;;;;;;5.77;5.37;;;14.10;99.90;;;;;;5009091;28;20439;-61
2020/12/29 10:14:32;;;;;;;5.27;4.87;;;14.50;99.90;;;;;;5018535;28;20193;-62
2020/12/29 10:16:58;;;;;;;5.40;4.90;;;14.80;99.90;;;;;;5019553;28;20250;-61
2020/12/29 10:19:24;;;;;;;4.67;4.27;;;14.90;99.90;;;;;;5012929;28;20190;-61
2020/12/29 10:21:51;;;;;;;4.13;3.80;;;15.20;99.90;;;;;;5009229;28;20221;-61
2020/12/29 10:24:16;;;;;;;4.10;3.80;;;15.30;99.90;;;;;;5006877;28;20273;-62
2020/12/29 10:26:42;;;;;;;4.40;4.00;;;15.70;99.90;;;;;;5005840;28;20456;-62
2020/12/29 10:29:07;;;;;;;4.40;4.10;;;16.20;99.90;;;;;;5011925;28;20697;-61
2020/12/29 10:31:33;;;;;;;4.40;4.00;;;16.30;99.90;;;;;;5009931;28;20225;-61
2020/12/29 10:34:02;;;;;;;3.80;3.60;;;16.00;99.90;;;;;;5008745;28;20201;-61
2020/12/29 10:36:35;;;;;;;4.10;3.83;;;15.60;99.90;;;;;;5002941;28;20236;-61
2020/12/29 10:39:01;;;;;;;4.80;4.40;;;14.60;99.90;;;;;;5002637;28;20492;-60
2020/12/29 10:41:32;;;;;;;4.30;4.10;;;13.00;99.90;;;;;;5008221;28;20476;-61
2020/12/29 10:43:57;;;;;;;4.90;4.50;;;12.30;99.90;;;;;;5008838;28;20491;-61
2020/12/29 10:46:24;;;;;;;5.17;4.83;;;11.60;99.90;;;;;;5010757;28;20540;-61
2020/12/29 10:48:50;;;;;;;4.30;4.00;;;11.30;1.00;;;;;;5004062;28;20198;-61
2020/12/29 10:51:21;;;;;;;5.17;4.77;;;10.80;1.00;;;;;;5004006;28;21269;-61
2020/12/29 10:53:47;;;;;;;4.33;4.03;;;10.50;1.00;;;;;;5002339;28;20993;-59
2020/12/29 10:56:16;;;;;;;5.40;5.00;;;10.30;1.00;;;;;;5009191;28;20490;-62
2020/12/29 10:58:42;;;;;;;7.47;6.87;;;10.30;1.00;;;;;;5019391;28;20499;-62
2020/12/29 11:01:08;;;;;;;5.13;4.72;;;10.00;99.90;;;;;;5024168;28;20450;-62
2020/12/29 11:03:34;;;;;;;4.88;4.47;;;9.90;99.90;;;;;;5024755;28;20824;-62
2020/12/29 11:06:00;;;;;;;5.67;5.27;;;10.20;99.90;;;;;;5021462;28;20211;-62
2020/12/29 11:08:26;;;;;;;5.20;4.80;;;11.00;99.90;;;;;;5016810;28;20186;-61
2020/12/29 11:10:53;;;;;;;5.73;5.33;;;11.90;1.00;;;;;;5023658;28;20668;-62
2020/12/29 11:13:18;;;;;;;4.50;4.20;;;12.40;1.00;;;;;;5028479;28;20438;-62
2020/12/29 11:15:44;;;;;;;5.87;4.80;;;12.80;99.90;;;;;;5016094;28;20992;-62
2020/12/29 11:18:10;;;;;;;4.30;4.00;;;12.70;99.90;;;;;;5019629;28;20235;-61
2020/12/29 11:20:36;;;;;;;4.90;4.50;;;12.60;99.90;;;;;;5021220;28;20502;-61
2020/12/29 11:23:01;;;;;;;4.90;4.60;;;12.40;99.90;;;;;;5014472;28;20217;-61
2020/12/29 11:25:28;;;;;;;4.23;3.93;;;12.10;99.90;;;;;;5011067;28;20189;-62
2020/12/29 11:27:53;;;;;;;4.70;4.40;;;12.00;99.90;;;;;;5016106;28;20260;-62
2020/12/29 11:30:19;;;;;;;4.50;4.20;;;11.20;1.00;;;;;;5028120;28;21272;-63
2020/12/29 11:32:45;;;;;;;5.10;4.70;;;11.30;1.00;;;;;;5024863;28;20342;-61
2020/12/29 11:35:10;;;;;;;4.77;4.37;;;11.20;1.00;;;;;;5027745;28;20186;-62
2020/12/29 11:37:36;;;;;;;5.17;4.70;;;10.90;1.00;;;;;;5022609;28;20657;-61
2020/12/29 11:40:02;;;;;;;5.00;4.70;;;10.70;1.00;;;;;;5023617;28;20236;-61
2020/12/29 11:42:28;;;;;;;5.33;4.93;;;10.10;1.00;;;;;;5023709;28;20237;-61
2020/12/29 11:44:54;;;;;;;5.00;4.60;;;9.80;99.90;;;;;;5027138;28;20445;-61
2020/12/29 11:47:19;;;;;;;5.83;5.33;;;9.50;99.90;;;;;;5017004;28;20194;-61
2020/12/29 11:49:45;;;;;;;5.00;4.63;;;9.30;1.00;;;;;;5025114;28;20189;-61
2020/12/29 11:52:10;;;;;;;5.60;5.20;;;8.80;1.00;;;;;;5025354;28;20217;-61
2020/12/29 11:54:36;;;;;;;6.13;5.53;;;8.60;99.90;;;;;;5024345;28;20202;-63
2020/12/29 11:57:02;;;;;;;6.73;5.90;;;8.30;1.00;;;;;;5020298;28;20287;-63
2020/12/29 11:59:27;;;;;;;5.90;5.40;;;8.00;1.00;;;;;;5021181;28;20242;-63
2020/12/29 12:01:53;;;;;;;5.63;5.23;;;7.80;99.90;;;;;;5025065;28;20857;-64
2020/12/29 12:04:19;;;;;;;6.07;5.57;;;7.50;99.90;;;;;;5020818;28;20269;-63
2020/12/29 12:06:48;;;;;;;5.30;4.90;;;7.50;1.00;;;;;;5014821;28;20304;-64
2020/12/29 12:09:15;;;;;;;6.05;5.50;;;7.40;1.00;;;;;;5024823;28;20185;-64
2020/12/29 12:11:41;;;;;;;6.15;5.65;;;7.30;99.90;;;;;;5024421;28;20219;-65
2020/12/29 12:14:07;;;;;;;5.57;5.17;;;7.20;1.00;;;;;;5024784;28;20575;-64
2020/12/29 12:16:39;;;;;;;6.27;5.67;;;7.10;1.00;;;;;;5026081;28;20471;-64
2020/12/29 12:19:05;;;;;;;6.07;5.53;;;7.20;99.90;;;;;;5022992;28;20187;-65
2020/12/29 12:21:32;;;;;;;7.40;6.70;;;7.20;99.90;;;;;;5025804;28;20199;-65
2020/12/29 12:23:57;;;;;;;6.30;5.63;;;7.20;99.90;;;;;;5027038;28;20748;-63
2020/12/29 12:26:23;;;;;;;6.20;5.70;;;7.20;24.20;;;;;;5026492;28;20203;-63
2020/12/29 12:28:49;;;;;;;6.07;5.57;;;7.30;99.90;;;;;;5016413;28;20458;-63
2020/12/29 12:31:15;;;;;;;6.00;5.40;;;7.30;99.90;;;;;;5025361;28;20430;-64
2020/12/29 12:33:41;;;;;;;6.00;5.50;;;7.30;99.90;;;;;;5021240;28;20208;-64
2020/12/29 12:36:07;;;;;;;6.03;5.53;;;7.30;99.90;;;;;;5017193;28;20294;-64
2020/12/29 12:38:33;;;;;;;6.20;5.70;;;7.30;99.90;;;;;;5020862;28;20431;-65
2020/12/29 12:40:59;;;;;;;6.00;5.50;;;7.30;99.90;;;;;;5017938;28;20890;-65
2020/12/29 12:43:25;;;;;;;5.30;4.90;;;7.40;99.90;;;;;;5021561;28;20485;-64